createdAt,value
2023-01-03T00:01:21.925Z,8.60
2023-01-03T00:04:49.234Z,8.50
2023-01-03T00:08:11.778Z,8.50
2023-01-03T00:11:34.305Z,8.50
2023-01-03T00:14:57.106Z,8.50
2023-01-03T00:18:20.062Z,8.40
2023-01-03T00:21:43.250Z,8.40
2023-01-03T00:25:05.377Z,8.40
2023-01-03T00:28:26.976Z,8.40
2023-01-03T00:31:48.789Z,8.40
2023-01-03T00:35:11.693Z,8.40
2023-01-03T00:38:33.486Z,8.30
2023-01-03T00:41:55.076Z,8.40
2023-01-03T00:45:19.877Z,8.40
2023-01-03T00:48:42.825Z,8.40
2023-01-03T00:52:07.932Z,8.40
2023-01-03T00:55:29.723Z,8.30
2023-01-03T00:58:51.308Z,8.30
2023-01-03T01:02:12.975Z,8.30
2023-01-03T01:05:34.865Z,8.30
2023-01-03T01:08:58.701Z,8.20
2023-01-03T01:12:35.944Z,8.20
2023-01-03T01:16:00.612Z,8.10
2023-01-03T01:19:23.425Z,8.10
2023-01-03T01:22:44.973Z,8.10
2023-01-03T01:26:08.579Z,8.00
2023-01-03T01:29:30.168Z,8.00
2023-01-03T01:32:51.830Z,8.00
2023-01-03T01:36:16.751Z,8.00
2023-01-03T01:39:38.314Z,8.00
2023-01-03T01:43:10.820Z,7.90
2023-01-03T01:46:32.728Z,7.80
2023-01-03T01:49:56.122Z,7.70
2023-01-03T01:53:19.351Z,7.70
2023-01-03T01:56:42.126Z,7.70
2023-01-03T02:00:05.849Z,7.60
2023-01-03T02:03:27.494Z,7.60
2023-01-03T02:06:49.693Z,7.60
2023-01-03T02:10:11.274Z,7.60
2023-01-03T02:13:36.838Z,7.70
2023-01-03T02:17:03.557Z,7.70
2023-01-03T02:20:30.641Z,7.70
2023-01-03T02:24:13.772Z,7.70
2023-01-03T02:27:47.398Z,7.70
2023-01-03T02:31:12.772Z,7.60
2023-01-03T02:34:38.645Z,7.60
2023-01-03T02:38:06.020Z,7.50
2023-01-03T02:41:32.485Z,7.50
2023-01-03T02:44:57.860Z,7.50
2023-01-03T02:48:27.052Z,7.50
2023-01-03T02:51:51.206Z,7.40
2023-01-03T02:55:15.998Z,7.50
2023-01-03T02:58:38.471Z,7.40
2023-01-03T03:02:01.538Z,7.30
2023-01-03T03:05:25.623Z,7.30
2023-01-03T03:08:47.468Z,7.20
2023-01-03T03:12:09.231Z,7.20
2023-01-03T03:15:32.640Z,7.20
2023-01-03T03:18:57.836Z,7.20
2023-01-03T03:22:27.479Z,7.10
2023-01-03T03:25:50.470Z,7.10
2023-01-03T03:29:15.252Z,7.10
2023-01-03T03:32:38.011Z,7.10
2023-01-03T03:36:04.155Z,7.10
2023-01-03T03:39:27.996Z,7.10
2023-01-03T03:42:51.194Z,7.10
2023-01-03T03:46:15.149Z,7.10
2023-01-03T03:49:38.720Z,7.10
2023-01-03T03:53:02.068Z,7.00
2023-01-03T03:56:26.318Z,7.00
2023-01-03T03:59:51.403Z,7.00
2023-01-03T04:03:13.932Z,7.00
2023-01-03T04:06:38.698Z,6.90
2023-01-03T04:10:00.354Z,6.90
2023-01-03T04:13:23.300Z,6.90
2023-01-03T04:16:44.874Z,6.80
2023-01-03T04:20:06.737Z,6.70
2023-01-03T04:23:28.315Z,6.70
2023-01-03T04:26:49.890Z,6.60
2023-01-03T04:30:13.310Z,6.60
2023-01-03T04:33:34.872Z,6.50
2023-01-03T04:36:56.437Z,6.40
2023-01-03T04:40:18.022Z,6.40
2023-01-03T04:43:39.578Z,6.40
2023-01-03T04:47:02.506Z,6.30
2023-01-03T04:50:24.047Z,6.20
2023-01-03T04:53:45.630Z,6.10
2023-01-03T04:57:07.664Z,6.00
2023-01-03T05:00:29.257Z,6.00
2023-01-03T05:03:55.989Z,6.00
2023-01-03T05:07:17.566Z,6.10
2023-01-03T05:10:39.465Z,6.10
2023-01-03T05:14:01.028Z,6.10
2023-01-03T05:17:22.576Z,6.10
2023-01-03T05:20:45.476Z,6.20
2023-01-03T05:24:09.227Z,6.10
2023-01-03T05:27:31.005Z,6.10
2023-01-03T05:30:52.552Z,6.10
2023-01-03T05:34:14.277Z,6.10
2023-01-03T05:37:37.241Z,6.00
2023-01-03T05:40:59.139Z,6.00
2023-01-03T05:44:20.707Z,5.90
2023-01-03T05:47:42.276Z,5.90
2023-01-03T05:51:04.018Z,5.90
2023-01-03T05:54:26.908Z,5.90
2023-01-03T05:57:48.460Z,5.80
2023-01-03T06:01:10.258Z,5.80
2023-01-03T06:04:31.920Z,5.70
2023-01-03T06:07:54.082Z,5.70
2023-01-03T06:11:17.014Z,5.70
2023-01-03T06:14:38.551Z,5.70
2023-01-03T06:18:00.109Z,5.60
2023-01-03T06:21:21.669Z,5.60
2023-01-03T06:24:43.629Z,5.70
2023-01-03T06:28:06.533Z,5.60
2023-01-03T06:31:28.289Z,5.60
2023-01-03T06:34:49.895Z,5.70
2023-01-03T06:38:11.443Z,5.60
2023-01-03T06:41:33.003Z,5.60
2023-01-03T06:44:55.856Z,5.60
2023-01-03T06:48:17.496Z,5.60
2023-01-03T06:51:39.565Z,5.50
2023-01-03T06:55:01.514Z,5.40
2023-01-03T06:58:23.068Z,5.40
2023-01-03T07:01:46.405Z,5.50
2023-01-03T07:05:08.377Z,5.50
2023-01-03T07:08:29.953Z,5.40
2023-01-03T07:11:51.518Z,5.40
2023-01-03T07:15:13.059Z,5.30
2023-01-03T07:18:35.967Z,5.40
2023-01-03T07:21:57.526Z,5.40
2023-01-03T07:25:19.144Z,5.40
2023-01-03T07:28:40.728Z,5.40
2023-01-03T07:32:02.275Z,5.50
2023-01-03T07:35:25.154Z,5.50
2023-01-03T07:38:47.211Z,5.40
2023-01-03T07:42:08.769Z,5.30
2023-01-03T07:45:30.322Z,5.30
2023-01-03T07:48:52.693Z,5.30
2023-01-03T07:52:15.585Z,5.30
2023-01-03T07:55:37.333Z,5.30
2023-01-03T07:58:59.511Z,5.40
2023-01-03T08:02:21.273Z,5.40
2023-01-03T08:05:42.960Z,5.50
2023-01-03T08:09:06.407Z,5.60
2023-01-03T08:12:28.156Z,5.70
2023-01-03T08:15:51.284Z,5.80
2023-01-03T08:19:12.894Z,6.00
2023-01-03T08:22:34.437Z,6.10
2023-01-03T08:26:01.265Z,6.30
2023-01-03T08:29:22.880Z,6.50
2023-01-03T08:32:44.631Z,6.60
2023-01-03T08:36:07.785Z,6.70
2023-01-03T08:39:32.120Z,6.70
2023-01-03T08:42:55.011Z,6.70
2023-01-03T08:46:17.172Z,6.80
2023-01-03T08:49:38.866Z,6.80
2023-01-03T08:53:00.410Z,6.90
2023-01-03T08:56:22.053Z,7.00
2023-01-03T08:59:44.967Z,7.20
2023-01-03T09:03:07.604Z,7.30
2023-01-03T09:06:29.361Z,7.50
2023-01-03T09:09:50.945Z,7.60
2023-01-03T09:13:12.507Z,7.70
2023-01-03T09:16:35.458Z,7.80
2023-01-03T09:19:57.054Z,7.90
2023-01-03T09:23:18.648Z,8.00
2023-01-03T09:26:40.233Z,8.00
2023-01-03T09:30:01.845Z,8.10
2023-01-03T09:33:24.747Z,8.20
2023-01-03T09:36:46.313Z,8.20
2023-01-03T09:40:09.516Z,8.10
2023-01-03T09:43:34.301Z,8.20
2023-01-03T09:46:56.038Z,8.40
2023-01-03T09:50:39.483Z,8.50
2023-01-03T09:54:02.263Z,8.40
2023-01-03T09:57:28.667Z,8.30
2023-01-03T10:00:52.925Z,8.40
2023-01-03T10:04:32.460Z,8.40
2023-01-03T10:08:01.324Z,8.50
2023-01-03T10:11:28.776Z,8.70
2023-01-03T10:14:58.921Z,8.80
2023-01-03T10:18:27.263Z,8.90
2023-01-03T10:21:52.019Z,9.00
2023-01-03T10:25:17.511Z,9.00
2023-01-03T10:28:40.327Z,9.10
2023-01-03T10:32:12.115Z,9.20
2023-01-03T10:35:34.466Z,9.20
2023-01-03T10:39:02.856Z,9.10
2023-01-03T10:42:29.310Z,9.10
2023-01-03T10:45:52.466Z,9.10
2023-01-03T10:49:29.534Z,8.90
2023-01-03T10:52:57.459Z,8.80
2023-01-03T10:56:19.976Z,8.80
2023-01-03T10:59:48.324Z,8.60
2023-01-03T11:03:11.816Z,8.40
2023-01-03T11:06:33.614Z,8.30
2023-01-03T11:09:56.463Z,8.30
2023-01-03T11:13:22.944Z,8.30
2023-01-03T11:16:52.629Z,8.30
2023-01-03T11:20:17.950Z,8.30
2023-01-03T11:23:50.122Z,8.40
2023-01-03T11:27:16.295Z,8.50
2023-01-03T11:30:40.206Z,8.60
2023-01-03T11:34:08.063Z,8.60
2023-01-03T11:37:35.346Z,8.60
2023-01-03T11:41:02.022Z,8.60
2023-01-03T11:44:43.303Z,8.60
2023-01-03T11:48:11.495Z,8.50
2023-01-03T11:51:36.274Z,8.40
2023-01-03T11:55:08.998Z,8.30
2023-01-03T11:58:39.823Z,8.20
2023-01-03T12:02:20.023Z,8.10
2023-01-03T12:05:43.667Z,8.20
2023-01-03T12:09:11.314Z,8.30
2023-01-03T12:12:43.438Z,8.40
2023-01-03T12:16:07.725Z,8.50
2023-01-03T12:19:33.360Z,8.60
2023-01-03T12:22:58.607Z,8.60
2023-01-03T12:26:23.371Z,8.60
2023-01-03T12:29:48.913Z,8.60
2023-01-03T12:33:16.203Z,8.60
2023-01-03T12:36:41.074Z,8.60
2023-01-03T12:40:03.641Z,8.60
2023-01-03T12:43:31.699Z,8.50
2023-01-03T12:46:55.056Z,8.50
2023-01-03T12:50:18.399Z,8.60
2023-01-03T12:53:42.703Z,8.70
2023-01-03T12:57:25.203Z,8.80
2023-01-03T13:00:53.441Z,8.80
2023-01-03T13:04:23.051Z,8.90
2023-01-03T13:07:48.571Z,9.00
2023-01-03T13:11:15.580Z,9.10
2023-01-03T13:14:53.772Z,9.10
2023-01-03T13:18:34.573Z,9.00
2023-01-03T13:22:01.221Z,9.10
2023-01-03T13:25:31.256Z,9.10
2023-01-03T13:29:13.564Z,9.20
2023-01-03T13:32:46.096Z,9.20
2023-01-03T13:36:08.992Z,9.20
2023-01-03T13:39:35.614Z,9.20
2023-01-03T13:43:12.566Z,9.10
2023-01-03T13:46:34.298Z,9.10
2023-01-03T13:49:56.963Z,9.00
2023-01-03T13:53:29.970Z,8.90
2023-01-03T13:56:59.192Z,8.80
2023-01-03T14:00:22.219Z,8.80
2023-01-03T14:03:50.416Z,8.90
2023-01-03T14:07:32.948Z,8.90
2023-01-03T14:11:02.893Z,8.80
2023-01-03T14:14:26.346Z,8.70
2023-01-03T14:17:49.180Z,8.60
2023-01-03T14:21:21.742Z,8.60
2023-01-03T14:24:47.835Z,8.70
2023-01-03T14:28:17.628Z,8.70
2023-01-03T14:31:43.546Z,8.80
2023-01-03T14:35:05.617Z,8.90
2023-01-03T14:38:30.792Z,8.90
2023-01-03T14:41:56.135Z,8.90
2023-01-03T14:45:19.590Z,8.80
2023-01-03T14:48:45.535Z,8.70
2023-01-03T14:52:08.634Z,8.60
2023-01-03T14:55:31.277Z,8.50
2023-01-03T14:58:56.313Z,8.50
2023-01-03T15:02:20.014Z,8.40
2023-01-03T15:05:41.972Z,8.30
2023-01-03T15:09:12.959Z,8.30
2023-01-03T15:12:35.886Z,8.10
2023-01-03T15:15:58.588Z,8.00
2023-01-03T15:19:23.194Z,7.90
2023-01-03T15:22:45.025Z,7.80
2023-01-03T15:26:07.554Z,7.70
2023-01-03T15:29:43.575Z,7.70
2023-01-03T15:33:20.460Z,7.70
2023-01-03T15:36:50.109Z,7.60
2023-01-03T15:40:13.583Z,7.50
2023-01-03T15:43:37.173Z,7.50
2023-01-03T15:47:01.292Z,7.50
2023-01-03T15:50:25.556Z,7.40
2023-01-03T15:53:48.501Z,7.30
2023-01-03T15:57:13.006Z,7.20
2023-01-03T16:00:34.760Z,7.10
2023-01-03T16:03:56.681Z,7.00
2023-01-03T16:07:20.175Z,6.90
2023-01-03T16:10:45.674Z,6.80
2023-01-03T16:14:10.982Z,6.70
2023-01-03T16:17:32.668Z,6.60
2023-01-03T16:20:54.767Z,6.50
2023-01-03T16:24:16.987Z,6.50
2023-01-03T16:27:40.096Z,6.40
2023-01-03T16:31:02.762Z,6.30
2023-01-03T16:34:28.781Z,6.30
2023-01-03T16:37:56.620Z,6.20
2023-01-03T16:41:19.679Z,6.20
2023-01-03T16:44:43.585Z,6.20
2023-01-03T16:48:05.468Z,6.20
2023-01-03T16:51:28.184Z,6.10
2023-01-03T16:54:49.901Z,6.10
2023-01-03T16:58:13.396Z,6.10
2023-01-03T17:01:39.277Z,6.10
2023-01-03T17:05:01.516Z,6.10
2023-01-03T17:08:24.389Z,6.20
2023-01-03T17:11:46.197Z,6.10
2023-01-03T17:15:09.563Z,6.10
2023-01-03T17:18:34.129Z,6.00
2023-01-03T17:21:55.797Z,6.00
2023-01-03T17:25:19.061Z,5.90
2023-01-03T17:28:40.937Z,5.90
2023-01-03T17:32:03.220Z,5.90
2023-01-03T17:35:26.351Z,5.80
2023-01-03T17:38:48.192Z,5.70
2023-01-03T17:42:13.248Z,5.70
2023-01-03T17:45:34.809Z,5.70
2023-01-03T17:48:56.372Z,5.60
2023-01-03T17:52:22.973Z,5.60
2023-01-03T17:55:44.898Z,5.60
2023-01-03T17:59:06.463Z,5.50
2023-01-03T18:02:28.207Z,5.50
2023-01-03T18:05:50.017Z,5.40
2023-01-03T18:09:15.052Z,5.40
2023-01-03T18:12:36.668Z,5.40
2023-01-03T18:15:58.437Z,5.30
2023-01-03T18:19:20.049Z,5.30
2023-01-03T18:22:42.025Z,5.20
2023-01-03T18:26:06.033Z,5.20
2023-01-03T18:29:27.590Z,5.00
2023-01-03T18:32:49.146Z,4.90
2023-01-03T18:36:17.220Z,4.80
2023-01-03T18:39:39.542Z,4.70
2023-01-03T18:43:09.825Z,4.80
2023-01-03T18:46:31.461Z,4.80
2023-01-03T18:49:53.181Z,4.90
2023-01-03T18:53:16.168Z,5.00
2023-01-03T18:56:39.296Z,5.00
2023-01-03T19:00:02.378Z,5.00
2023-01-03T19:03:24.966Z,5.00
2023-01-03T19:06:47.673Z,5.00
2023-01-03T19:10:16.039Z,4.90
2023-01-03T19:13:38.814Z,4.90
2023-01-03T19:17:02.010Z,4.80
2023-01-03T19:20:26.988Z,4.80
2023-01-03T19:23:54.271Z,4.90
2023-01-03T19:27:18.227Z,4.90
2023-01-03T19:30:42.187Z,4.90
2023-01-03T19:34:05.791Z,4.80
2023-01-03T19:37:27.374Z,4.70
2023-01-03T19:40:49.396Z,4.50
2023-01-03T19:44:11.200Z,4.30
2023-01-03T19:47:32.768Z,4.20
2023-01-03T19:50:55.670Z,4.20
2023-01-03T19:54:17.427Z,4.10
2023-01-03T19:57:40.287Z,4.00
2023-01-03T20:01:01.995Z,4.00
2023-01-03T20:04:23.809Z,3.80
2023-01-03T20:07:47.654Z,3.70
2023-01-03T20:11:13.118Z,3.60
2023-01-03T20:14:34.737Z,3.60
2023-01-03T20:17:56.699Z,3.50
2023-01-03T20:21:22.570Z,3.50
2023-01-03T20:24:46.466Z,3.50
2023-01-03T20:28:11.369Z,3.50
2023-01-03T20:31:33.064Z,3.60
2023-01-03T20:34:54.701Z,3.80
2023-01-03T20:38:17.358Z,3.80
2023-01-03T20:41:40.312Z,3.90
2023-01-03T20:45:01.873Z,3.90
2023-01-03T20:48:26.143Z,4.00
2023-01-03T20:51:48.004Z,4.00
2023-01-03T20:55:12.210Z,4.10
2023-01-03T20:58:35.146Z,4.00
2023-01-03T21:01:58.581Z,4.10
2023-01-03T21:05:20.642Z,4.20
2023-01-03T21:08:42.220Z,4.20
2023-01-03T21:12:04.021Z,4.20
2023-01-03T21:15:27.029Z,4.20
2023-01-03T21:18:48.630Z,4.20
2023-01-03T21:22:17.282Z,4.20
2023-01-03T21:25:38.844Z,4.20
2023-01-03T21:29:00.430Z,4.30
2023-01-03T21:32:23.326Z,4.30
2023-01-03T21:35:45.055Z,4.30
2023-01-03T21:39:06.595Z,4.30
2023-01-03T21:42:28.146Z,4.30
2023-01-03T21:45:49.813Z,4.30
2023-01-03T21:49:12.749Z,4.20
2023-01-03T21:52:34.461Z,4.20
2023-01-03T21:55:56.046Z,4.10
2023-01-03T21:59:17.654Z,4.10
2023-01-03T22:02:39.621Z,4.10
2023-01-03T22:06:06.223Z,4.00
2023-01-03T22:09:28.262Z,3.90
2023-01-03T22:12:51.284Z,3.80
2023-01-03T22:16:12.880Z,3.70
2023-01-03T22:19:34.442Z,3.60
2023-01-03T22:22:57.340Z,3.50
2023-01-03T22:26:18.908Z,3.40
2023-01-03T22:29:40.682Z,3.40
2023-01-03T22:33:02.244Z,3.40
2023-01-03T22:36:23.820Z,3.40
2023-01-03T22:39:46.761Z,3.30
2023-01-03T22:43:08.352Z,3.20
2023-01-03T22:46:29.973Z,3.20
2023-01-03T22:49:51.641Z,3.20
2023-01-03T22:53:13.201Z,3.10
2023-01-03T22:56:36.108Z,3.10
2023-01-03T22:59:57.668Z,3.10
2023-01-03T23:03:19.268Z,3.00
2023-01-03T23:06:40.838Z,2.90
2023-01-03T23:10:02.509Z,2.90
2023-01-03T23:13:25.428Z,2.80
2023-01-03T23:20:09.584Z,2.80
2023-01-03T23:23:31.136Z,2.70
2023-01-03T23:26:53.238Z,2.80
2023-01-03T23:30:16.193Z,2.80
2023-01-03T23:33:37.770Z,2.80
2023-01-03T23:36:59.336Z,2.80
2023-01-03T23:40:20.889Z,2.80
2023-01-03T23:43:42.507Z,2.90
2023-01-03T23:47:11.982Z,2.90
2023-01-03T23:50:34.452Z,2.90
2023-01-03T23:53:58.897Z,2.90
2023-01-03T23:57:22.022Z,2.90
